Time;durP1;ratioP1;P1;durP2;ratioP2;P2;SDS_P1;SDS_P2;PMS_P1;PMS_P2;Temp;Humidity;BMP_temperature;BMP_pressure;BME280_temperature;BME280_humidity;BME280_pressure;Samples;Min_cycle;Max_cycle;Signal;HPM_P1;HPM_P2
2021/09/27 00:00:21;;;;;;;7.38;4.68;;;26.30;99.90;;;;;;4156665;28;20095;-69
2021/09/27 00:02:26;;;;;;;12.18;4.88;;;26.40;99.90;;;;;;4131190;28;20104;-68
2021/09/27 00:04:31;;;;;;;10.85;4.75;;;26.40;99.90;;;;;;4153831;28;20049;-68
2021/09/27 00:06:35;;;;;;;11.27;4.55;;;26.40;99.90;;;;;;4159857;28;20053;-69
2021/09/27 00:08:42;;;;;;;10.23;4.63;;;26.20;99.90;;;;;;4151610;28;20045;-68
2021/09/27 00:10:49;;;;;;;9.30;4.53;;;26.20;99.90;;;;;;4160370;28;20043;-68
2021/09/27 00:12:53;;;;;;;9.50;4.95;;;26.20;99.90;;;;;;4151620;28;20073;-68
2021/09/27 00:14:58;;;;;;;9.48;4.90;;;26.20;99.90;;;;;;4152143;28;20045;-68
2021/09/27 00:17:06;;;;;;;9.63;4.40;;;26.30;99.90;;;;;;4147123;28;20103;-68
2021/09/27 00:19:11;;;;;;;9.45;4.60;;;26.30;99.90;;;;;;4156278;28;20081;-70
2021/09/27 00:21:19;;;;;;;7.80;4.07;;;26.30;99.90;;;;;;4146313;28;20050;-68
2021/09/27 00:23:26;;;;;;;9.23;4.05;;;26.40;99.90;;;;;;4139029;28;20149;-68
2021/09/27 00:25:30;;;;;;;12.68;4.57;;;26.40;99.90;;;;;;4153579;28;20055;-68
2021/09/27 00:27:35;;;;;;;7.50;4.03;;;26.60;99.90;;;;;;4157355;28;20065;-69
2021/09/27 00:29:40;;;;;;;12.27;4.43;;;26.50;99.90;;;;;;4170663;28;20048;-67
2021/09/27 00:31:44;;;;;;;12.43;4.35;;;26.40;99.90;;;;;;4128206;28;20080;-67
2021/09/27 00:33:49;;;;;;;12.13;4.38;;;26.40;99.90;;;;;;4165158;28;20079;-67
2021/09/27 00:35:53;;;;;;;8.43;4.20;;;26.40;99.90;;;;;;4149495;28;20084;-68
2021/09/27 00:37:58;;;;;;;7.80;3.90;;;26.50;99.90;;;;;;4165679;28;20533;-67
2021/09/27 00:40:07;;;;;;;7.38;3.90;;;26.40;99.90;;;;;;4147881;28;20233;-67
2021/09/27 00:42:13;;;;;;;10.30;4.43;;;26.50;99.90;;;;;;4160830;28;20482;-66
2021/09/27 00:44:18;;;;;;;6.82;3.45;;;26.60;99.90;;;;;;4158726;28;20426;-67
2021/09/27 00:46:25;;;;;;;7.32;3.80;;;26.60;99.90;;;;;;4169354;28;20057;-67
2021/09/27 00:48:30;;;;;;;7.60;3.40;;;26.60;99.90;;;;;;4146593;28;20503;-67
2021/09/27 00:50:40;;;;;;;7.32;3.75;;;26.60;99.90;;;;;;4162296;28;20078;-67
2021/09/27 00:52:44;;;;;;;10.23;3.70;;;26.50;99.90;;;;;;4150871;28;20061;-67
2021/09/27 00:54:49;;;;;;;7.25;3.70;;;26.50;99.90;;;;;;4169117;28;20037;-67
2021/09/27 00:56:56;;;;;;;6.20;3.58;;;26.40;99.90;;;;;;4155871;28;20128;-67
2021/09/27 00:59:01;;;;;;;7.15;3.60;;;26.30;99.90;;;;;;4153713;28;20107;-68
2021/09/27 01:01:06;;;;;;;6.38;3.45;;;26.30;99.90;;;;;;4155502;28;20065;-67
2021/09/27 01:03:12;;;;;;;5.72;3.00;;;26.40;99.90;;;;;;4172044;28;20103;-67
2021/09/27 01:05:17;;;;;;;9.02;3.25;;;26.50;99.90;;;;;;4148620;28;20145;-67
2021/09/27 01:07:46;;;;;;;7.53;3.95;;;26.60;99.90;;;;;;4150903;28;20822;-67
2021/09/27 01:10:11;;;;;;;8.45;4.35;;;26.70;99.90;;;;;;4155745;28;20045;-67
2021/09/27 01:12:41;;;;;;;6.90;3.80;;;26.70;99.90;;;;;;4171599;28;20041;-67
2021/09/27 01:15:04;;;;;;;10.43;4.03;;;26.60;99.90;;;;;;4156766;28;20076;-68
2021/09/27 01:17:27;;;;;;;6.88;3.67;;;26.60;99.90;;;;;;4108607;28;20050;-67
2021/09/27 01:19:38;;;;;;;;;;;26.70;99.90;;;;;;4169196;28;20045;-68
2021/09/27 01:21:43;;;;;;;5.82;4.13;;;26.80;99.90;;;;;;4156540;28;19929;-66
2021/09/27 01:24:15;;;;;;;8.30;4.68;;;26.80;99.90;;;;;;4156437;28;20053;-68
2021/09/27 01:26:27;;;;;;;8.77;4.65;;;26.80;99.90;;;;;;4159569;28;20053;-68
2021/09/27 01:28:35;;;;;;;7.55;4.20;;;26.80;99.90;;;;;;4159389;28;20069;-67
2021/09/27 01:30:45;;;;;;;18.17;5.20;;;26.70;99.90;;;;;;4164664;28;20049;-66
2021/09/27 01:32:55;;;;;;;7.97;4.28;;;26.90;99.90;;;;;;4162359;28;20044;-68
2021/09/27 01:35:15;;;;;;;6.75;4.07;;;27.00;99.90;;;;;;4162411;28;20076;-68
2021/09/27 01:37:24;;;;;;;13.70;4.15;;;27.00;99.90;;;;;;4162471;28;20418;-67
2021/09/27 01:39:41;;;;;;;6.18;4.00;;;27.00;99.90;;;;;;4163229;28;20065;-67
2021/09/27 01:41:59;;;;;;;7.75;3.80;;;27.10;99.90;;;;;;4146499;28;20069;-66
2021/09/27 01:44:19;;;;;;;6.28;3.95;;;27.20;99.90;;;;;;4163044;28;20081;-68
2021/09/27 01:46:36;;;;;;;5.38;3.65;;;27.00;99.90;;;;;;4177100;28;20494;-67
2021/09/27 01:49:00;;;;;;;7.55;4.10;;;27.00;99.90;;;;;;4163695;28;20049;-67
2021/09/27 01:51:24;;;;;;;;;;;27.00;99.90;;;;;;4163598;28;20520;-68
2021/09/27 01:54:00;;;;;;;6.93;3.65;;;27.00;99.90;;;;;;4163819;28;19924;-67
2021/09/27 01:56:09;;;;;;;5.03;3.72;;;27.20;99.90;;;;;;4178565;28;20052;-67
2021/09/27 01:58:33;;;;;;;11.18;3.88;;;27.30;99.90;;;;;;4160345;28;20041;-68
2021/09/27 02:01:00;;;;;;;7.28;4.38;;;27.50;99.90;;;;;;4161759;28;20041;-68
2021/09/27 02:03:19;;;;;;;11.52;3.80;;;27.40;99.90;;;;;;4153076;28;20491;-66
2021/09/27 02:05:37;;;;;;;6.28;3.67;;;27.40;99.90;;;;;;4150564;28;20049;-67
2021/09/27 02:08:02;;;;;;;5.68;3.38;;;27.40;99.90;;;;;;4163594;28;20056;-70
2021/09/27 02:10:23;;;;;;;7.60;3.47;;;27.50;99.90;;;;;;4158168;28;20504;-67
2021/09/27 02:12:34;;;;;;;5.00;3.50;;;27.50;99.90;;;;;;4160096;28;20033;-68
2021/09/27 02:14:43;;;;;;;6.40;3.15;;;27.70;99.90;;;;;;4158843;28;20392;-69
2021/09/27 02:17:07;;;;;;;5.63;3.42;;;27.70;99.90;;;;;;4161421;28;20439;-68
2021/09/27 02:19:39;;;;;;;6.68;3.47;;;27.70;99.90;;;;;;4158421;28;20487;-70
2021/09/27 02:21:47;;;;;;;6.68;3.28;;;27.90;99.90;;;;;;4162166;28;20515;-69
2021/09/27 02:23:53;;;;;;;5.25;3.60;;;28.00;99.90;;;;;;4158963;28;20581;-69
2021/09/27 02:25:58;;;;;;;7.80;4.03;;;28.10;99.90;;;;;;4144668;28;20053;-68
2021/09/27 02:28:06;;;;;;;5.57;3.45;;;28.20;99.90;;;;;;4175970;28;20045;-68
2021/09/27 02:30:12;;;;;;;8.95;3.60;;;28.10;99.90;;;;;;4114679;28;20105;-67
2021/09/27 02:32:31;;;;;;;9.88;3.92;;;28.20;99.90;;;;;;4144755;28;20488;-68
2021/09/27 02:35:03;;;;;;;5.38;3.30;;;28.20;99.90;;;;;;4144097;28;20085;-68
2021/09/27 02:37:21;;;;;;;7.45;3.55;;;28.30;99.90;;;;;;4162199;28;20049;-68
2021/09/27 02:39:31;;;;;;;7.22;3.63;;;28.50;99.90;;;;;;4163150;28;20045;-67
2021/09/27 02:41:38;;;;;;;5.57;3.20;;;28.60;99.90;;;;;;4160123;28;20045;-70
2021/09/27 02:43:44;;;;;;;5.53;3.85;;;28.70;99.90;;;;;;4162897;28;20053;-71
2021/09/27 02:45:48;;;;;;;8.57;3.45;;;28.70;99.90;;;;;;4175953;28;20052;-68
2021/09/27 02:48:09;;;;;;;6.18;3.28;;;28.80;99.90;;;;;;4144378;28;20488;-69
2021/09/27 02:50:18;;;;;;;6.53;3.53;;;28.90;99.90;;;;;;4143160;28;20050;-69
2021/09/27 02:52:23;;;;;;;7.00;3.50;;;29.10;99.90;;;;;;4120877;28;20042;-69
2021/09/27 02:54:32;;;;;;;3.90;3.15;;;29.10;99.90;;;;;;4144873;28;20457;-69
2021/09/27 02:56:47;;;;;;;6.47;3.15;;;29.10;99.90;;;;;;4127457;28;20046;-68
2021/09/27 02:59:16;;;;;;;5.22;3.58;;;29.00;99.90;;;;;;4127409;28;20039;-69
2021/09/27 03:01:43;;;;;;;6.65;3.40;;;29.00;99.90;;;;;;4141108;28;20046;-68
2021/09/27 03:03:55;;;;;;;6.25;3.95;;;29.10;99.90;;;;;;4141592;28;20052;-69
2021/09/27 03:06:09;;;;;;;6.25;3.47;;;29.20;99.90;;;;;;4126506;28;20469;-69
2021/09/27 03:08:38;;;;;;;9.30;5.00;;;29.10;99.90;;;;;;4123391;28;20073;-69
2021/09/27 03:10:45;;;;;;;8.85;4.38;;;29.10;99.90;;;;;;4140453;28;20049;-70
2021/09/27 03:13:07;;;;;;;6.55;3.72;;;29.10;99.90;;;;;;4143038;28;20050;-69
2021/09/27 03:15:17;;;;;;;5.45;3.70;;;29.20;99.90;;;;;;4142676;28;20197;-69
2021/09/27 03:17:37;;;;;;;6.60;3.90;;;29.30;99.90;;;;;;4141334;28;20526;-68
2021/09/27 03:20:01;;;;;;;5.68;3.50;;;29.40;99.90;;;;;;4151673;28;20045;-70
2021/09/27 03:22:21;;;;;;;8.73;4.10;;;29.50;99.90;;;;;;4175338;28;20128;-69
2021/09/27 03:24:38;;;;;;;4.40;3.20;;;29.40;99.90;;;;;;4161859;28;20041;-68
2021/09/27 03:27:06;;;;;;;5.60;3.60;;;29.30;99.90;;;;;;4160782;28;20056;-70
2021/09/27 03:29:32;;;;;;;7.35;3.33;;;29.30;99.90;;;;;;4158752;28;20042;-68
2021/09/27 03:31:53;;;;;;;7.22;3.20;;;29.20;99.90;;;;;;4159951;28;20111;-68
2021/09/27 03:34:02;;;;;;;6.13;3.13;;;29.20;99.90;;;;;;4158144;28;20093;-69
2021/09/27 03:36:29;;;;;;;5.28;3.40;;;29.30;99.90;;;;;;4158994;28;20045;-69
2021/09/27 03:38:38;;;;;;;4.50;3.15;;;29.40;99.90;;;;;;4162205;28;20073;-69
2021/09/27 03:41:01;;;;;;;5.18;3.40;;;29.40;99.90;;;;;;4144629;28;20520;-69
2021/09/27 03:43:26;;;;;;;5.75;3.30;;;29.40;99.90;;;;;;4161987;28;20059;-68
2021/09/27 03:46:02;;;;;;;3.88;3.20;;;29.30;99.90;;;;;;4175390;28;20063;-69
2021/09/27 03:48:25;;;;;;;5.55;3.20;;;29.40;99.90;;;;;;4175944;28;20090;-69
2021/09/27 03:50:57;;;;;;;5.20;3.40;;;29.40;99.90;;;;;;4161398;28;20045;-69
2021/09/27 03:53:05;;;;;;;5.97;3.10;;;29.40;99.90;;;;;;4146807;28;20092;-69
2021/09/27 03:55:25;;;;;;;6.57;3.28;;;29.40;99.90;;;;;;4159688;28;20058;-70
2021/09/27 03:57:50;;;;;;;7.97;3.45;;;29.50;99.90;;;;;;4161172;28;20041;-69
2021/09/27 04:00:16;;;;;;;5.72;3.00;;;29.70;99.90;;;;;;4160580;28;20045;-70
2021/09/27 04:02:44;;;;;;;5.00;3.58;;;29.70;99.90;;;;;;4161026;28;20560;-70
2021/09/27 04:05:07;;;;;;;4.63;3.30;;;29.70;99.90;;;;;;4173912;28;20128;-71
2021/09/27 04:07:18;;;;;;;7.78;3.53;;;29.80;99.90;;;;;;4160975;28;20057;-70
2021/09/27 04:09:38;;;;;;;5.18;3.00;;;29.80;99.90;;;;;;4160538;28;20045;-71
2021/09/27 04:12:07;;;;;;;3.70;3.20;;;29.90;99.90;;;;;;4161063;28;20041;-69
2021/09/27 04:14:20;;;;;;;8.90;3.47;;;30.00;99.90;;;;;;4162370;28;20041;-70
2021/09/27 04:16:49;;;;;;;8.25;3.22;;;30.10;99.90;;;;;;4158866;28;20037;-72
2021/09/27 04:19:18;;;;;;;4.60;3.33;;;30.30;99.90;;;;;;4144184;28;20042;-69
2021/09/27 04:21:44;;;;;;;19.65;3.55;;;30.30;99.90;;;;;;4161965;28;20046;-70
2021/09/27 04:23:52;;;;;;;5.97;2.95;;;30.40;99.90;;;;;;4162502;28;20049;-68
2021/09/27 04:26:08;;;;;;;8.20;3.50;;;30.50;99.90;;;;;;4162001;28;20333;-68
2021/09/27 04:28:27;;;;;;;8.85;3.05;;;30.50;99.90;;;;;;4161713;28;20049;-69
2021/09/27 04:30:54;;;;;;;6.53;3.05;;;30.40;99.90;;;;;;4178131;28;20314;-69
2021/09/27 04:33:18;;;;;;;6.20;3.10;;;30.40;99.90;;;;;;4160132;28;20145;-71
2021/09/27 04:35:45;;;;;;;6.57;3.08;;;30.40;99.90;;;;;;4158841;28;20385;-69
2021/09/27 04:37:50;;;;;;;5.50;3.45;;;30.50;99.90;;;;;;4143665;28;20049;-67
2021/09/27 04:39:54;;;;;;;6.85;3.60;;;30.50;99.90;;;;;;4143717;28;20050;-68
2021/09/27 04:42:24;;;;;;;4.78;3.35;;;30.50;99.90;;;;;;4159919;28;20132;-68
2021/09/27 04:44:42;;;;;;;8.35;2.97;;;30.60;99.90;;;;;;4163588;28;20111;-68
2021/09/27 04:47:00;;;;;;;5.57;2.97;;;30.60;99.90;;;;;;4163812;28;20493;-68
2021/09/27 04:49:07;;;;;;;5.70;3.15;;;30.60;99.90;;;;;;4179117;28;20045;-70
2021/09/27 04:51:24;;;;;;;13.93;2.78;;;30.60;99.90;;;;;;4148711;28;20562;-69
2021/09/27 04:53:41;;;;;;;5.13;2.95;;;30.70;99.90;;;;;;4148204;28;20050;-70
2021/09/27 04:56:10;;;;;;;4.55;2.90;;;30.70;99.90;;;;;;4149013;28;20050;-68
2021/09/27 04:58:33;;;;;;;5.75;3.00;;;30.70;99.90;;;;;;4164449;28;20739;-68
2021/09/27 05:00:43;;;;;;;5.20;2.70;;;30.80;99.90;;;;;;4156506;28;20042;-69
2021/09/27 05:02:52;;;;;;;4.55;2.67;;;31.00;99.90;;;;;;4179292;28;20045;-69
2021/09/27 05:05:10;;;;;;;4.13;2.70;;;30.90;99.90;;;;;;4164358;28;20116;-68
2021/09/27 05:07:33;;;;;;;6.93;3.00;;;30.90;99.90;;;;;;4179864;28;20089;-69
2021/09/27 05:09:50;;;;;;;4.43;2.60;;;30.90;99.90;;;;;;4162953;28;20515;-68
2021/09/27 05:12:13;;;;;;;4.35;2.80;;;30.80;99.90;;;;;;4179787;28;20049;-67
2021/09/27 05:14:34;;;;;;;3.47;2.70;;;30.70;99.90;;;;;;4164388;28;20057;-69
2021/09/27 05:16:54;;;;;;;5.05;3.60;;;30.70;99.90;;;;;;4179052;28;20072;-69
2021/09/27 05:19:24;;;;;;;5.88;2.88;;;30.80;99.90;;;;;;4159294;28;20424;-68
2021/09/27 05:21:53;;;;;;;6.90;2.92;;;30.80;99.90;;;;;;4161854;28;20045;-69
2021/09/27 05:24:28;;;;;;;8.27;2.90;;;31.00;99.90;;;;;;4163577;28;20570;-68
2021/09/27 05:26:39;;;;;;;4.70;3.10;;;31.30;99.90;;;;;;4178149;28;20550;-69
2021/09/27 05:28:53;;;;;;;3.75;2.75;;;31.40;99.90;;;;;;4163350;28;20045;-69
2021/09/27 05:31:12;;;;;;;3.33;2.58;;;31.40;99.90;;;;;;4178004;28;20049;-69
2021/09/27 05:33:42;;;;;;;5.43;2.78;;;31.20;99.90;;;;;;4158975;28;20118;-69
2021/09/27 05:36:01;;;;;;;6.13;3.00;;;30.90;99.90;;;;;;4163045;28;20136;-69
2021/09/27 05:38:21;;;;;;;4.53;2.67;;;30.70;99.90;;;;;;4163653;28;20097;-69
2021/09/27 05:40:32;;;;;;;4.88;2.67;;;30.80;99.90;;;;;;4176732;28;20052;-69
2021/09/27 05:42:47;;;;;;;6.32;2.70;;;31.00;99.90;;;;;;4163070;28;20113;-68
2021/09/27 05:45:01;;;;;;;5.03;2.60;;;31.10;99.90;;;;;;4162263;28;20111;-69
2021/09/27 05:47:20;;;;;;;3.90;2.80;;;31.20;99.90;;;;;;4163253;28;20557;-70
2021/09/27 05:49:38;;;;;;;5.65;2.60;;;31.30;99.90;;;;;;4163058;28;20321;-70
2021/09/27 05:51:58;;;;;;;7.15;3.20;;;31.30;99.90;;;;;;4161866;28;20053;-68
2021/09/27 05:54:12;;;;;;;5.15;2.60;;;31.40;99.90;;;;;;4160352;28;20049;-69
2021/09/27 05:56:22;;;;;;;4.05;2.75;;;31.40;99.90;;;;;;4162524;28;20053;-69
2021/09/27 05:58:32;;;;;;;3.88;2.60;;;31.50;99.90;;;;;;4145659;28;20054;-69
2021/09/27 06:00:59;;;;;;;2.97;2.42;;;31.60;99.90;;;;;;4176912;28;20076;-69
2021/09/27 06:03:16;;;;;;;3.65;2.65;;;31.70;99.90;;;;;;4158813;28;20050;-68
2021/09/27 06:05:39;;;;;;;4.85;2.50;;;31.70;99.90;;;;;;4163382;28;20057;-69
2021/09/27 06:07:50;;;;;;;4.53;2.80;;;31.70;99.90;;;;;;4161279;28;20053;-69
2021/09/27 06:10:10;;;;;;;5.00;2.70;;;31.80;99.90;;;;;;4145076;28;20065;-70
2021/09/27 06:12:25;;;;;;;5.93;2.47;;;31.80;99.90;;;;;;4145010;28;20042;-70
2021/09/27 06:14:30;;;;;;;3.90;2.50;;;31.80;99.90;;;;;;4138913;28;20077;-70
2021/09/27 06:16:49;;;;;;;5.15;2.47;;;31.80;99.90;;;;;;4162132;28;20045;-70
2021/09/27 06:19:08;;;;;;;3.30;2.42;;;31.70;99.90;;;;;;4158283;28;20064;-70
2021/09/27 06:21:47;;;;;;;3.42;2.20;;;31.60;99.90;;;;;;4160773;28;20038;-70
2021/09/27 06:24:10;;;;;;;3.63;2.50;;;31.50;99.90;;;;;;4177000;28;20219;-69
2021/09/27 06:26:14;;;;;;;3.20;2.17;;;31.40;99.90;;;;;;4150895;28;20076;-70
2021/09/27 06:28:35;;;;;;;4.18;2.72;;;31.40;99.90;;;;;;4161069;28;20409;-69
2021/09/27 06:30:40;;;;;;;4.13;2.53;;;31.40;99.90;;;;;;4144949;28;20048;-69
2021/09/27 06:33:06;;;;;;;3.67;2.28;;;31.40;99.90;;;;;;4161944;28;20127;-69
2021/09/27 06:35:13;;;;;;;2.70;2.30;;;31.50;99.90;;;;;;4160066;28;20447;-70
2021/09/27 06:37:19;;;;;;;4.55;2.50;;;31.50;99.90;;;;;;4144923;28;20056;-70
2021/09/27 06:39:27;;;;;;;3.92;2.63;;;31.50;99.90;;;;;;4144823;28;20512;-71
2021/09/27 06:41:33;;;;;;;3.70;2.00;;;31.50;99.90;;;;;;4162949;28;20083;-69
2021/09/27 06:43:38;;;;;;;4.03;2.60;;;31.40;99.90;;;;;;4131182;28;20128;-70
2021/09/27 06:45:43;;;;;;;4.57;2.30;;;31.40;99.90;;;;;;4163463;28;20049;-72
2021/09/27 06:47:48;;;;;;;3.30;2.10;;;31.40;99.90;;;;;;4163601;28;20129;-70
2021/09/27 06:49:52;;;;;;;3.38;2.30;;;31.50;99.90;;;;;;4179259;28;20052;-70
2021/09/27 06:51:57;;;;;;;4.32;2.33;;;31.50;99.90;;;;;;4164176;28;20046;-70
2021/09/27 06:54:01;;;;;;;3.83;2.25;;;31.50;99.90;;;;;;4162225;28;20136;-69
2021/09/27 06:56:06;;;;;;;5.95;2.40;;;31.60;99.90;;;;;;4162598;28;20135;-72
2021/09/27 06:58:11;;;;;;;5.63;2.50;;;31.60;99.90;;;;;;4164253;28;20453;-70
2021/09/27 07:00:15;;;;;;;5.43;2.58;;;31.70;99.90;;;;;;4130367;28;20476;-70
2021/09/27 07:02:20;;;;;;;4.35;2.35;;;31.80;99.90;;;;;;4162320;28;20518;-71
2021/09/27 07:04:24;;;;;;;2.83;2.38;;;31.80;99.90;;;;;;4145771;28;20112;-70
2021/09/27 07:06:29;;;;;;;3.22;2.40;;;31.90;99.90;;;;;;4161913;28;20420;-70
2021/09/27 07:08:33;;;;;;;3.58;2.40;;;31.90;99.90;;;;;;4178619;28;20103;-70
2021/09/27 07:10:37;;;;;;;3.65;2.45;;;32.00;99.90;;;;;;4162288;28;20049;-70
2021/09/27 07:12:42;;;;;;;4.78;2.33;;;32.00;99.90;;;;;;4163779;28;20053;-70
2021/09/27 07:14:46;;;;;;;3.55;2.58;;;32.10;99.90;;;;;;4163250;28;20044;-71
2021/09/27 07:16:51;;;;;;;3.33;2.05;;;32.10;99.90;;;;;;4145953;28;20057;-70
2021/09/27 07:18:55;;;;;;;2.30;2.08;;;32.20;99.90;;;;;;4158997;28;20037;-70
2021/09/27 07:21:00;;;;;;;5.85;2.10;;;32.20;99.90;;;;;;4163632;28;20573;-70
2021/09/27 07:23:05;;;;;;;5.07;2.40;;;32.20;99.90;;;;;;4178465;28;20037;-70
2021/09/27 07:25:11;;;;;;;3.30;2.30;;;32.10;99.90;;;;;;4161973;28;20204;-70
2021/09/27 07:27:16;;;;;;;3.83;2.10;;;32.10;99.90;;;;;;4162304;28;20038;-71
2021/09/27 07:29:21;;;;;;;3.70;2.45;;;32.10;99.90;;;;;;4163348;28;20458;-70
2021/09/27 07:31:28;;;;;;;4.32;2.58;;;32.10;99.90;;;;;;4163439;28;20448;-71
2021/09/27 07:33:34;;;;;;;3.17;1.98;;;32.10;99.90;;;;;;4159737;28;20129;-71
2021/09/27 07:35:38;;;;;;;3.53;2.30;;;32.10;99.90;;;;;;4177671;28;20036;-71
2021/09/27 07:37:43;;;;;;;8.52;2.28;;;32.10;99.90;;;;;;4162303;28;20038;-72
2021/09/27 07:39:48;;;;;;;3.92;2.30;;;32.10;99.90;;;;;;4178024;28;20108;-71
2021/09/27 07:41:52;;;;;;;3.63;2.25;;;32.20;99.90;;;;;;4146326;28;20064;-71
2021/09/27 07:43:58;;;;;;;2.95;2.00;;;32.10;99.90;;;;;;4163321;28;20129;-72
2021/09/27 07:46:03;;;;;;;4.90;1.90;;;32.10;99.90;;;;;;4163409;28;20135;-71
2021/09/27 07:48:13;;;;;;;2.75;2.00;;;32.10;99.90;;;;;;4158234;28;20465;-72
2021/09/27 07:50:17;;;;;;;3.85;2.10;;;32.20;99.80;;;;;;4177806;28;20504;-71
2021/09/27 07:52:22;;;;;;;2.47;2.10;;;32.10;99.90;;;;;;4163125;28;20064;-71
2021/09/27 07:54:27;;;;;;;3.35;2.10;;;32.10;99.80;;;;;;4163433;28;20050;-70
2021/09/27 07:56:32;;;;;;;4.30;2.25;;;32.10;99.30;;;;;;4145498;28;20598;-71
2021/09/27 07:58:36;;;;;;;4.45;2.22;;;32.10;99.00;;;;;;4142336;28;20050;-71
2021/09/27 08:00:41;;;;;;;6.18;2.10;;;32.10;99.40;;;;;;4161893;28;20402;-71
2021/09/27 08:02:46;;;;;;;4.45;2.00;;;31.90;99.70;;;;;;4159523;28;20042;-71
2021/09/27 08:04:51;;;;;;;4.32;2.10;;;31.90;99.90;;;;;;4163000;28;20519;-72
2021/09/27 08:06:57;;;;;;;4.85;2.10;;;32.00;99.90;;;;;;4163343;28;20073;-71
2021/09/27 08:09:02;;;;;;;5.75;1.90;;;32.00;99.60;;;;;;4177165;28;20033;-71
2021/09/27 08:11:06;;;;;;;6.80;2.28;;;32.10;99.90;;;;;;4162608;28;20037;-71
2021/09/27 08:13:15;;;;;;;4.75;2.15;;;32.10;99.90;;;;;;4161932;28;20037;-70
2021/09/27 08:15:24;;;;;;;4.03;1.70;;;32.10;98.80;;;;;;4162821;28;20492;-70
2021/09/27 08:17:29;;;;;;;3.05;2.00;;;32.10;98.70;;;;;;4161632;28;20256;-70
2021/09/27 08:19:35;;;;;;;3.92;1.85;;;32.10;99.10;;;;;;4160875;28;20037;-72
2021/09/27 08:21:40;;;;;;;4.63;2.20;;;32.00;98.90;;;;;;4162840;28;20051;-70
2021/09/27 08:23:44;;;;;;;5.15;1.83;;;32.20;99.10;;;;;;4162948;28;20065;-71
2021/09/27 08:25:49;;;;;;;3.25;1.88;;;32.20;98.80;;;;;;4161464;28;20051;-71
2021/09/27 08:27:56;;;;;;;3.25;1.90;;;32.20;98.80;;;;;;4159341;28;20080;-70
2021/09/27 08:30:00;;;;;;;3.83;1.80;;;32.10;99.00;;;;;;4162386;28;20419;-69
2021/09/27 08:32:06;;;;;;;2.85;1.70;;;32.10;97.80;;;;;;4162018;28;20056;-69
2021/09/27 08:34:10;;;;;;;2.67;2.10;;;32.10;98.60;;;;;;4145801;28;20072;-70
2021/09/27 08:36:16;;;;;;;4.68;2.30;;;32.20;98.50;;;;;;4145226;28;20277;-70
2021/09/27 08:38:21;;;;;;;2.97;2.03;;;32.20;98.30;;;;;;4158114;28;20476;-70
2021/09/27 08:40:50;;;;;;;2.22;2.00;;;32.20;98.30;;;;;;4144987;28;20074;-69
2021/09/27 08:42:55;;;;;;;3.47;1.70;;;32.20;98.30;;;;;;4161298;28;20049;-71
2021/09/27 08:45:03;;;;;;;2.83;1.70;;;32.20;98.40;;;;;;4161302;28;20041;-70
2021/09/27 08:47:20;;;;;;;4.10;2.15;;;32.20;98.30;;;;;;4160609;28;20068;-70
2021/09/27 08:49:37;;;;;;;5.00;2.50;;;32.20;98.50;;;;;;4153816;28;20096;-69
2021/09/27 08:51:41;;;;;;;7.53;2.80;;;32.20;98.70;;;;;;4160271;28;20132;-69
2021/09/27 08:53:48;;;;;;;4.28;2.15;;;32.10;98.60;;;;;;4161177;28;20515;-73
2021/09/27 08:55:58;;;;;;;6.50;2.50;;;32.10;98.80;;;;;;4145136;28;20038;-70
2021/09/27 08:58:18;;;;;;;8.95;2.60;;;32.10;98.90;;;;;;4161895;28;20042;-69
2021/09/27 09:00:48;;;;;;;7.97;2.17;;;32.00;99.00;;;;;;4162783;28;20073;-70
2021/09/27 09:02:58;;;;;;;5.15;2.05;;;32.00;99.10;;;;;;4159779;28;20056;-69
2021/09/27 09:05:19;;;;;;;5.07;2.20;;;31.90;99.30;;;;;;4144893;28;20038;-70
2021/09/27 09:07:24;;;;;;;4.78;2.20;;;31.90;99.50;;;;;;4146289;28;20050;-70
2021/09/27 09:09:38;;;;;;;7.30;2.85;;;31.80;99.70;;;;;;4126716;28;20061;-72
2021/09/27 09:11:57;;;;;;;3.88;2.58;;;31.80;99.90;;;;;;4159865;28;20072;-71
2021/09/27 09:14:14;;;;;;;6.30;3.08;;;31.70;99.90;;;;;;4160191;28;20053;-70
2021/09/27 09:16:19;;;;;;;6.95;3.70;;;31.70;99.90;;;;;;4160095;28;20492;-70
2021/09/27 09:18:30;;;;;;;6.85;3.00;;;31.70;99.90;;;;;;4154227;28;20092;-71
2021/09/27 09:20:56;;;;;;;6.75;3.47;;;31.70;99.90;;;;;;4144059;28;20145;-72
2021/09/27 09:23:01;;;;;;;7.22;2.78;;;31.70;99.90;;;;;;4153436;28;20051;-70
2021/09/27 09:25:10;;;;;;;5.43;2.90;;;31.70;99.90;;;;;;4160259;28;20500;-71
2021/09/27 09:27:14;;;;;;;6.93;3.00;;;31.60;99.90;;;;;;4157736;28;20049;-70
2021/09/27 09:29:24;;;;;;;8.18;2.80;;;31.60;99.90;;;;;;4160376;28;20046;-70
2021/09/27 09:31:34;;;;;;;13.32;5.53;;;31.60;99.90;;;;;;4162360;28;20101;-70
2021/09/27 09:34:00;;;;;;;13.00;7.47;;;31.60;99.90;;;;;;4162512;28;20055;-68
2021/09/27 09:36:05;;;;;;;21.80;13.52;;;31.50;99.90;;;;;;4162820;28;20060;-71
2021/09/27 09:38:11;;;;;;;30.58;17.45;;;31.50;99.90;;;;;;4162987;28;20548;-71
2021/09/27 09:40:28;;;;;;;25.27;16.27;;;31.40;99.90;;;;;;4163299;28;20148;-70
2021/09/27 09:42:33;;;;;;;28.25;17.75;;;31.30;99.90;;;;;;4163961;28;20052;-70
2021/09/27 09:44:39;;;;;;;23.20;14.80;;;31.30;99.90;;;;;;4161643;28;20496;-70
2021/09/27 09:46:44;;;;;;;17.00;10.90;;;31.30;99.90;;;;;;4161265;28;20092;-72
2021/09/27 09:49:08;;;;;;;9.82;5.60;;;31.20;99.90;;;;;;4158503;28;20065;-70
2021/09/27 09:51:25;;;;;;;6.82;3.50;;;31.10;99.90;;;;;;4159135;28;20057;-69
2021/09/27 09:53:31;;;;;;;6.85;3.65;;;31.10;99.90;;;;;;4158825;28;20546;-69
2021/09/27 09:55:43;;;;;;;4.53;2.95;;;31.00;99.90;;;;;;4160573;28;20042;-71
2021/09/27 09:58:01;;;;;;;4.35;3.05;;;31.00;99.90;;;;;;4168416;28;20396;-70
2021/09/27 10:00:27;;;;;;;8.13;3.83;;;31.00;99.90;;;;;;4155010;28;20079;-71
2021/09/27 10:02:32;;;;;;;7.55;5.55;;;31.00;99.90;;;;;;4155211;28;20053;-71
2021/09/27 10:04:47;;;;;;;14.70;10.75;;;30.90;99.90;;;;;;4159769;28;20037;-72
2021/09/27 10:06:59;;;;;;;12.73;10.20;;;30.90;99.90;;;;;;4144018;28;20042;-70
2021/09/27 10:09:06;;;;;;;12.50;10.52;;;30.90;99.90;;;;;;4144924;28;20603;-70
2021/09/27 10:11:14;;;;;;;9.77;6.22;;;30.90;99.90;;;;;;4136679;28;20058;-71
2021/09/27 10:13:34;;;;;;;8.00;4.90;;;30.80;99.90;;;;;;4147607;28;20069;-69
2021/09/27 10:15:42;;;;;;;5.38;3.72;;;30.80;99.90;;;;;;4179379;28;20041;-70
2021/09/27 10:17:46;;;;;;;5.03;3.10;;;30.80;99.90;;;;;;4160529;28;20049;-69
2021/09/27 10:19:59;;;;;;;7.38;4.10;;;30.80;99.90;;;;;;4145789;28;20543;-70
2021/09/27 10:22:15;;;;;;;8.98;4.47;;;30.70;99.90;;;;;;4159460;28;20057;-71
2021/09/27 10:24:22;;;;;;;7.80;4.53;;;30.70;99.90;;;;;;4161059;28;20045;-70
2021/09/27 10:26:35;;;;;;;9.38;4.50;;;30.70;99.90;;;;;;4143440;28;20092;-70
2021/09/27 10:28:40;;;;;;;;;;;30.60;99.90;;;;;;4158680;28;20042;-70
2021/09/27 10:30:49;;;;;;;6.78;4.20;;;30.60;99.90;;;;;;4156636;28;19925;-69
2021/09/27 10:32:56;;;;;;;6.95;3.88;;;30.60;99.90;;;;;;4124167;28;20130;-69
2021/09/27 10:35:07;;;;;;;5.82;3.92;;;30.60;99.90;;;;;;4160321;28;20060;-71
2021/09/27 10:37:14;;;;;;;8.90;3.40;;;30.50;99.90;;;;;;4162377;28;20052;-72
2021/09/27 10:39:20;;;;;;;6.13;3.30;;;30.50;99.90;;;;;;4146232;28;20112;-71
2021/09/27 10:41:37;;;;;;;6.22;3.13;;;30.50;99.90;;;;;;4145863;28;20065;-71
2021/09/27 10:43:43;;;;;;;6.22;3.22;;;30.50;99.90;;;;;;4162431;28;20503;-68
2021/09/27 10:45:55;;;;;;;9.02;2.85;;;30.40;99.90;;;;;;4161799;28;20060;-69
2021/09/27 10:48:06;;;;;;;8.13;2.97;;;30.40;99.90;;;;;;4161594;28;20052;-69
2021/09/27 10:50:28;;;;;;;4.35;3.00;;;30.30;99.90;;;;;;4161443;28;20264;-69
2021/09/27 10:52:46;;;;;;;5.90;2.70;;;30.30;99.90;;;;;;4164143;28;20056;-70
2021/09/27 10:55:02;;;;;;;7.25;2.90;;;30.30;99.90;;;;;;4162499;28;20148;-70
2021/09/27 10:57:17;;;;;;;8.70;3.33;;;30.20;99.90;;;;;;4163978;28;20451;-72
2021/09/27 10:59:42;;;;;;;6.95;3.42;;;30.20;99.90;;;;;;4132112;28;20417;-70
2021/09/27 11:01:51;;;;;;;9.48;4.40;;;30.20;99.90;;;;;;4147401;28;20559;-70
2021/09/27 11:03:56;;;;;;;14.95;5.70;;;30.10;99.90;;;;;;4160062;28;20033;-71
2021/09/27 11:06:15;;;;;;;11.50;5.85;;;30.00;99.90;;;;;;4146670;28;20061;-70
2021/09/27 11:08:34;;;;;;;11.38;5.80;;;30.00;99.90;;;;;;4157603;28;20049;-69
2021/09/27 11:10:50;;;;;;;13.45;4.47;;;30.10;99.90;;;;;;4147135;28;20092;-69
2021/09/27 11:12:54;;;;;;;14.68;4.03;;;30.00;99.90;;;;;;4162967;28;20045;-71
2021/09/27 11:15:04;;;;;;;11.70;3.80;;;30.00;99.90;;;;;;4162956;28;20443;-71
2021/09/27 11:17:21;;;;;;;16.80;3.95;;;30.00;99.90;;;;;;4176555;28;20482;-69
2021/09/27 11:19:32;;;;;;;13.13;3.28;;;30.00;99.90;;;;;;4162583;28;20048;-71
2021/09/27 11:21:36;;;;;;;6.45;3.40;;;30.00;99.90;;;;;;4162193;28;20128;-71
2021/09/27 11:23:41;;;;;;;6.97;3.78;;;29.90;99.90;;;;;;4162433;28;20092;-70
2021/09/27 11:26:03;;;;;;;8.88;4.53;;;29.90;99.90;;;;;;4161399;28;20056;-71
2021/09/27 11:28:26;;;;;;;6.93;3.92;;;29.90;99.90;;;;;;4176279;28;20518;-71
2021/09/27 11:30:46;;;;;;;8.10;3.85;;;29.80;99.90;;;;;;4160732;28;20044;-71